Time;durP1;ratioP1;P1;durP2;ratioP2;P2;SDS_P1;SDS_P2;PMS_P1;PMS_P2;Temp;Humidity;BMP_temperature;BMP_pressure;BME280_temperature;BME280_humidity;BME280_pressure;Samples;Min_cycle;Max_cycle;Signal;HPM_P1;HPM_P2
2022/09/02 00:00:26;;;;;;;3.25;1.95;;;;;;;;;;5078880;28;20234;-66
2022/09/02 00:02:54;;;;;;;2.13;1.92;;;;;;;;;;5078714;28;20291;-66
2022/09/02 00:05:21;;;;;;;2.13;1.65;;;;;;;;;;5078338;28;20204;-66
2022/09/02 00:07:48;;;;;;;1.73;1.50;;;;;;;;;;5078614;28;20215;-66
2022/09/02 00:10:16;;;;;;;1.77;1.35;;;;;;;;;;5079702;28;20197;-66
2022/09/02 00:12:43;;;;;;;1.70;1.60;;;;;;;;;;5070004;28;20212;-66
2022/09/02 00:15:11;;;;;;;1.77;1.67;;;;;;;;;;5078300;28;20212;-66
2022/09/02 00:17:39;;;;;;;2.28;1.70;;;;;;;;;;5078747;28;20617;-66
2022/09/02 00:20:08;;;;;;;1.70;1.60;;;;;;;;;;5078428;28;20487;-66
2022/09/02 00:22:35;;;;;;;1.55;1.45;;;;;;;;;;5078440;28;20239;-66
2022/09/02 00:25:03;;;;;;;2.15;1.50;;;;;;;;;;5078329;28;20204;-66
2022/09/02 00:27:30;;;;;;;1.80;1.70;;;;;;;;;;5078400;28;20205;-66
2022/09/02 00:29:57;;;;;;;1.77;1.52;;;;;;;;;;5077986;28;20200;-66
2022/09/02 00:32:25;;;;;;;3.00;1.90;;;;;;;;;;5078093;28;20208;-66
2022/09/02 00:34:54;;;;;;;1.90;1.80;;;;;;;;;;5078144;28;20208;-67
2022/09/02 00:37:23;;;;;;;1.50;1.40;;;;;;;;;;5082963;28;20323;-66
2022/09/02 00:39:51;;;;;;;1.80;1.60;;;;;;;;;;5098401;28;20235;-66
2022/09/02 00:42:19;;;;;;;1.83;1.73;;;;;;;;;;5098319;28;20242;-66
2022/09/02 00:44:46;;;;;;;2.22;1.70;;;;;;;;;;5098172;28;20218;-66
2022/09/02 00:47:14;;;;;;;1.73;1.63;;;;;;;;;;5085874;28;20228;-65
2022/09/02 00:49:44;;;;;;;2.08;1.90;;;;;;;;;;5078159;28;20251;-66
2022/09/02 00:52:15;;;;;;;1.80;1.48;;;;;;;;;;5077955;28;20204;-66
2022/09/02 00:54:51;;;;;;;1.65;1.55;;;;;;;;;;5077801;28;20204;-66
2022/09/02 00:57:22;;;;;;;1.60;1.50;;;;;;;;;;5077671;28;20211;-66
2022/09/02 00:59:52;;;;;;;2.15;1.70;;;;;;;;;;5077862;28;20235;-67
2022/09/02 01:02:22;;;;;;;1.77;1.67;;;;;;;;;;5077638;28;20253;-66
2022/09/02 01:04:50;;;;;;;1.60;1.50;;;;;;;;;;5085077;28;20553;-66
2022/09/02 01:07:21;;;;;;;1.80;1.70;;;;;;;;;;5098532;28;20222;-66
2022/09/02 01:09:49;;;;;;;1.65;1.55;;;;;;;;;;5098139;28;20308;-66
2022/09/02 01:12:17;;;;;;;1.80;1.50;;;;;;;;;;5098167;28;20233;-66
2022/09/02 01:14:44;;;;;;;1.70;1.60;;;;;;;;;;5097918;28;20217;-66
2022/09/02 01:17:11;;;;;;;1.77;1.50;;;;;;;;;;5098049;28;20246;-65
2022/09/02 01:19:41;;;;;;;2.00;1.80;;;;;;;;;;5097642;28;20234;-66
2022/09/02 01:22:18;;;;;;;2.30;1.67;;;;;;;;;;5097986;28;20306;-66
2022/09/02 01:24:45;;;;;;;1.70;1.60;;;;;;;;;;5097635;28;20294;-66
2022/09/02 01:27:15;;;;;;;1.42;1.30;;;;;;;;;;5097648;28;20265;-66
2022/09/02 01:29:43;;;;;;;1.65;1.50;;;;;;;;;;5097897;28;20215;-66
2022/09/02 01:32:10;;;;;;;2.75;1.60;;;;;;;;;;5091349;28;20500;-66
2022/09/02 01:34:38;;;;;;;2.00;1.60;;;;;;;;;;5077441;28;20295;-66
2022/09/02 01:37:05;;;;;;;1.73;1.63;;;;;;;;;;5077422;28;20303;-66
2022/09/02 01:39:35;;;;;;;1.58;1.48;;;;;;;;;;5077430;28;20297;-66
2022/09/02 01:42:02;;;;;;;1.70;1.60;;;;;;;;;;5077496;28;20204;-66
2022/09/02 01:44:30;;;;;;;1.52;1.42;;;;;;;;;;5077550;28;20290;-66
2022/09/02 01:46:57;;;;;;;1.50;1.40;;;;;;;;;;5077630;28;20307;-66
2022/09/02 01:49:24;;;;;;;1.50;1.40;;;;;;;;;;5077488;28;20208;-65
2022/09/02 01:51:54;;;;;;;1.70;1.60;;;;;;;;;;5076888;28;20649;-66
2022/09/02 01:54:22;;;;;;;1.60;1.50;;;;;;;;;;5077276;28;20211;-65
2022/09/02 01:56:51;;;;;;;1.70;1.60;;;;;;;;;;5089302;28;20230;-65
2022/09/02 01:59:19;;;;;;;1.70;1.60;;;;;;;;;;5097588;28;20257;-66
2022/09/02 02:01:47;;;;;;;1.67;1.50;;;;;;;;;;5089724;28;20294;-66
2022/09/02 02:04:15;;;;;;;1.60;1.50;;;;;;;;;;5097216;28;20207;-65
2022/09/02 02:06:43;;;;;;;1.70;1.60;;;;;;;;;;5097539;28;20204;-66
2022/09/02 02:09:11;;;;;;;1.77;1.67;;;;;;;;;;5097300;28;20204;-65
2022/09/02 02:11:39;;;;;;;1.98;1.70;;;;;;;;;;5096926;28;20211;-66
2022/09/02 02:14:08;;;;;;;1.60;1.50;;;;;;;;;;5093526;28;20201;-66
2022/09/02 02:16:35;;;;;;;1.70;1.60;;;;;;;;;;5081341;28;20263;-66
2022/09/02 02:19:03;;;;;;;1.88;1.50;;;;;;;;;;5080761;28;20209;-65
2022/09/02 02:21:31;;;;;;;1.65;1.50;;;;;;;;;;5080816;28;20311;-65
2022/09/02 02:24:00;;;;;;;1.75;1.50;;;;;;;;;;5080666;28;20306;-66
2022/09/02 02:26:27;;;;;;;1.90;1.70;;;;;;;;;;5080591;28;20238;-66
2022/09/02 02:28:54;;;;;;;1.90;1.40;;;;;;;;;;5080714;28;20273;-66
2022/09/02 02:31:24;;;;;;;3.05;1.50;;;;;;;;;;5080452;28;20291;-65
2022/09/02 02:33:51;;;;;;;1.55;1.45;;;;;;;;;;5080699;28;20219;-66
2022/09/02 02:36:19;;;;;;;1.50;1.40;;;;;;;;;;5080267;28;20222;-65
2022/09/02 02:38:47;;;;;;;1.90;1.70;;;;;;;;;;5080283;28;20258;-65
2022/09/02 02:41:14;;;;;;;2.08;1.65;;;;;;;;;;5083233;28;20596;-66
2022/09/02 02:43:42;;;;;;;1.75;1.65;;;;;;;;;;5098362;28;20290;-65
2022/09/02 02:46:10;;;;;;;1.60;1.50;;;;;;;;;;5100522;28;20231;-65
2022/09/02 02:48:39;;;;;;;1.90;1.67;;;;;;;;;;5100227;28;20203;-66
2022/09/02 02:51:07;;;;;;;1.77;1.67;;;;;;;;;;5099859;28;20199;-65
2022/09/02 02:53:35;;;;;;;1.50;1.40;;;;;;;;;;5100281;28;20212;-66
2022/09/02 02:56:03;;;;;;;1.63;1.52;;;;;;;;;;5100112;28;20204;-65
2022/09/02 02:58:31;;;;;;;1.52;1.42;;;;;;;;;;5100134;28;20245;-66
2022/09/02 03:00:58;;;;;;;1.80;1.70;;;;;;;;;;5100259;28;20534;-66
2022/09/02 03:03:26;;;;;;;2.05;1.85;;;;;;;;;;5100119;28;20203;-66
2022/09/02 03:05:55;;;;;;;1.88;1.60;;;;;;;;;;5100054;28;20247;-66
2022/09/02 03:08:24;;;;;;;1.95;1.50;;;;;;;;;;5099609;28;20211;-66
2022/09/02 03:10:53;;;;;;;1.42;1.33;;;;;;;;;;5099519;28;20204;-66
2022/09/02 03:13:21;;;;;;;2.22;1.42;;;;;;;;;;5099951;28;20211;-65
2022/09/02 03:15:48;;;;;;;1.83;1.73;;;;;;;;;;5100095;28;20272;-66
2022/09/02 03:18:16;;;;;;;1.88;1.65;;;;;;;;;;5099819;28;20199;-66
2022/09/02 03:20:44;;;;;;;2.35;1.60;;;;;;;;;;5091675;28;20310;-65
2022/09/02 03:23:13;;;;;;;2.47;1.42;;;;;;;;;;5099549;28;20281;-66
2022/09/02 03:25:43;;;;;;;1.42;1.33;;;;;;;;;;5099627;28;20203;-66
2022/09/02 03:28:10;;;;;;;1.48;1.38;;;;;;;;;;5100003;28;20204;-65
2022/09/02 03:30:39;;;;;;;1.60;1.50;;;;;;;;;;5099385;28;20200;-66
2022/09/02 03:33:07;;;;;;;1.65;1.55;;;;;;;;;;5099356;28;20298;-65
2022/09/02 03:35:35;;;;;;;1.85;1.67;;;;;;;;;;5097862;28;20196;-65
2022/09/02 03:38:02;;;;;;;1.75;1.63;;;;;;;;;;5099777;28;20298;-66
2022/09/02 03:40:31;;;;;;;1.70;1.60;;;;;;;;;;5099057;28;20223;-65
2022/09/02 03:42:58;;;;;;;1.60;1.50;;;;;;;;;;5099369;28;20207;-66
2022/09/02 03:45:26;;;;;;;2.35;1.77;;;;;;;;;;5099327;28;20211;-66
2022/09/02 03:47:53;;;;;;;1.65;1.55;;;;;;;;;;5098799;28;20230;-66
2022/09/02 03:50:21;;;;;;;1.80;1.70;;;;;;;;;;5098553;28;20208;-66
2022/09/02 03:52:49;;;;;;;1.60;1.50;;;;;;;;;;5098599;28;20580;-66
2022/09/02 03:55:17;;;;;;;1.95;1.75;;;;;;;;;;5098739;28;20306;-65
2022/09/02 03:57:46;;;;;;;1.60;1.50;;;;;;;;;;5098591;28;20270;-66
2022/09/02 04:00:14;;;;;;;1.77;1.67;;;;;;;;;;5098824;28;20219;-65
2022/09/02 04:02:42;;;;;;;1.88;1.55;;;;;;;;;;5092305;28;20223;-66
2022/09/02 04:05:11;;;;;;;2.20;1.50;;;;;;;;;;5078319;28;20311;-65
2022/09/02 04:07:38;;;;;;;1.88;1.50;;;;;;;;;;5078000;28;20307;-66
2022/09/02 04:10:07;;;;;;;1.58;1.40;;;;;;;;;;5077995;28;20201;-65
2022/09/02 04:12:35;;;;;;;1.92;1.60;;;;;;;;;;5078272;28;20232;-65
2022/09/02 04:15:04;;;;;;;1.60;1.50;;;;;;;;;;5078045;28;20306;-66
2022/09/02 04:17:32;;;;;;;1.70;1.60;;;;;;;;;;5077492;28;20513;-65
2022/09/02 04:19:59;;;;;;;3.08;1.63;;;;;;;;;;5077780;28;20220;-65
2022/09/02 04:22:26;;;;;;;1.67;1.58;;;;;;;;;;5077290;28;20310;-66
2022/09/02 04:24:54;;;;;;;1.80;1.50;;;;;;;;;;5076785;28;20204;-66
2022/09/02 04:27:21;;;;;;;1.48;1.38;;;;;;;;;;5077690;28;20208;-65
2022/09/02 04:29:49;;;;;;;1.70;1.60;;;;;;;;;;5081212;28;20642;-65
2022/09/02 04:32:18;;;;;;;1.48;1.38;;;;;;;;;;5078821;28;20278;-66
2022/09/02 04:34:46;;;;;;;1.70;1.60;;;;;;;;;;5076961;28;20208;-66
2022/09/02 04:37:13;;;;;;;1.60;1.50;;;;;;;;;;5076160;28;20513;-66
2022/09/02 04:39:40;;;;;;;1.60;1.50;;;;;;;;;;5076985;28;20204;-65
2022/09/02 04:42:08;;;;;;;1.85;1.73;;;;;;;;;;5076165;28;20717;-66
2022/09/02 04:44:35;;;;;;;1.88;1.70;;;;;;;;;;5076699;28;20215;-65
2022/09/02 04:47:02;;;;;;;1.55;1.38;;;;;;;;;;5076423;28;20236;-66
2022/09/02 04:49:32;;;;;;;1.58;1.48;;;;;;;;;;5076395;28;20306;-66
2022/09/02 04:52:00;;;;;;;1.40;1.30;;;;;;;;;;5076842;28;20243;-65
2022/09/02 04:54:27;;;;;;;2.05;1.60;;;;;;;;;;5075595;28;20204;-66
2022/09/02 04:56:54;;;;;;;1.30;1.20;;;;;;;;;;5076403;28;20208;-65
2022/09/02 04:59:22;;;;;;;1.40;1.30;;;;;;;;;;5076103;28;20208;-65
2022/09/02 05:01:50;;;;;;;1.50;1.33;;;;;;;;;;5075657;28;20216;-66
2022/09/02 05:04:17;;;;;;;1.50;1.40;;;;;;;;;;5075434;28;20299;-65
2022/09/02 05:06:46;;;;;;;1.83;1.65;;;;;;;;;;5075155;28;20215;-65
2022/09/02 05:09:14;;;;;;;1.52;1.42;;;;;;;;;;5075061;28;20200;-65
2022/09/02 05:11:41;;;;;;;1.40;1.30;;;;;;;;;;5074863;28;20295;-66
2022/09/02 05:14:09;;;;;;;1.75;1.30;;;;;;;;;;5074441;28;20211;-65
2022/09/02 05:16:37;;;;;;;1.88;1.48;;;;;;;;;;5073744;28;20471;-65
2022/09/02 05:19:05;;;;;;;1.50;1.40;;;;;;;;;;5074505;28;20204;-66
2022/09/02 05:21:33;;;;;;;1.50;1.40;;;;;;;;;;5073935;28;20220;-65
2022/09/02 05:24:01;;;;;;;1.80;1.55;;;;;;;;;;5074507;28;20208;-66
2022/09/02 05:26:29;;;;;;;1.30;1.20;;;;;;;;;;5092307;28;20200;-66
2022/09/02 05:28:56;;;;;;;1.60;1.50;;;;;;;;;;5095147;28;20203;-66
2022/09/02 05:31:24;;;;;;;1.70;1.50;;;;;;;;;;5088712;28;20192;-65
2022/09/02 05:33:52;;;;;;;1.65;1.50;;;;;;;;;;5091201;28;20298;-65
2022/09/02 05:36:20;;;;;;;2.17;1.48;;;;;;;;;;5085295;28;20584;-65
2022/09/02 05:38:47;;;;;;;2.13;1.60;;;;;;;;;;5074380;28;20509;-65
2022/09/02 05:41:18;;;;;;;1.52;1.42;;;;;;;;;;5074891;28;20228;-66
2022/09/02 05:43:47;;;;;;;1.77;1.60;;;;;;;;;;5079753;28;20204;-66
2022/09/02 05:46:17;;;;;;;1.73;1.63;;;;;;;;;;5093710;28;20245;-66
2022/09/02 05:51:31;;;;;;;1.63;1.52;;;;;;;;;;5088363;28;20195;-65
2022/09/02 05:53:59;;;;;;;1.80;1.70;;;;;;;;;;5076914;28;20214;-65
2022/09/02 05:56:28;;;;;;;1.60;1.50;;;;;;;;;;5076180;28;20204;-65
2022/09/02 05:58:57;;;;;;;1.52;1.42;;;;;;;;;;5076901;28;20215;-66
2022/09/02 06:01:25;;;;;;;1.70;1.60;;;;;;;;;;5076383;28;20231;-66
2022/09/02 06:03:53;;;;;;;1.88;1.77;;;;;;;;;;5077292;28;20214;-65
2022/09/02 06:06:22;;;;;;;2.88;1.92;;;;;;;;;;5077030;28;20255;-66
2022/09/02 06:08:50;;;;;;;1.90;1.80;;;;;;;;;;5076521;28;20236;-66
2022/09/02 06:11:18;;;;;;;1.77;1.67;;;;;;;;;;5077882;28;20623;-66
2022/09/02 06:13:47;;;;;;;3.28;1.98;;;;;;;;;;5077540;28;20270;-66
2022/09/02 06:16:16;;;;;;;2.55;1.95;;;;;;;;;;5077590;28;20200;-66
2022/09/02 06:18:44;;;;;;;2.35;2.15;;;;;;;;;;5078727;28;20297;-65
2022/09/02 06:21:11;;;;;;;2.45;1.80;;;;;;;;;;5076650;28;20219;-65
2022/09/02 06:23:39;;;;;;;2.28;2.08;;;;;;;;;;5076903;28;20200;-66
2022/09/02 06:26:07;;;;;;;2.30;2.10;;;;;;;;;;5076933;28;20480;-66
2022/09/02 06:28:35;;;;;;;2.70;2.40;;;;;;;;;;5077194;28;20204;-66
2022/09/02 06:31:08;;;;;;;2.42;2.20;;;;;;;;;;5076372;28;20200;-65
2022/09/02 06:33:36;;;;;;;2.75;2.55;;;;;;;;;;5077342;28;20489;-66
2022/09/02 06:36:06;;;;;;;2.70;2.50;;;;;;;;;;5088953;28;20211;-66
2022/09/02 06:38:36;;;;;;;2.50;2.30;;;;;;;;;;5095412;28;20211;-65
2022/09/02 06:41:03;;;;;;;2.50;2.30;;;;;;;;;;5094741;28;20483;-65
2022/09/02 06:43:31;;;;;;;2.42;2.22;;;;;;;;;;5094767;28;20207;-66
2022/09/02 06:45:58;;;;;;;2.22;2.08;;;;;;;;;;5049058;28;1205553;-66
2022/09/02 06:48:28;;;;;;;2.90;2.60;;;;;;;;;;5084053;28;20200;-66
2022/09/02 06:50:56;;;;;;;2.40;2.20;;;;;;;;;;5095595;28;20479;-66
2022/09/02 06:53:24;;;;;;;2.58;2.38;;;;;;;;;;5095884;28;20604;-66
2022/09/02 06:55:51;;;;;;;2.60;2.33;;;;;;;;;;5094325;28;20256;-66
2022/09/02 06:58:19;;;;;;;2.83;2.60;;;;;;;;;;5095768;28;20243;-66
2022/09/02 07:00:46;;;;;;;2.75;2.47;;;;;;;;;;5094630;28;20223;-66
2022/09/02 07:06:08;;;;;;;2.40;2.20;;;;;;;;;;5078416;28;20207;-66
2022/09/02 07:08:36;;;;;;;2.63;2.20;;;;;;;;;;5095567;28;20267;-66
2022/09/02 07:11:03;;;;;;;2.47;2.28;;;;;;;;;;5096490;28;20196;-66
2022/09/02 07:13:31;;;;;;;2.85;2.45;;;;;;;;;;5094291;28;20467;-66
2022/09/02 07:15:58;;;;;;;2.42;2.22;;;;;;;;;;5096419;28;20513;-66
2022/09/02 07:18:25;;;;;;;2.30;2.10;;;;;;;;;;5097304;28;20210;-66
2022/09/02 07:20:53;;;;;;;2.70;2.08;;;;;;;;;;5094700;28;20223;-66
2022/09/02 07:23:22;;;;;;;2.30;2.10;;;;;;;;;;5094616;28;20303;-66
2022/09/02 07:25:49;;;;;;;2.40;2.20;;;;;;;;;;5094815;28;20567;-66
2022/09/02 07:28:17;;;;;;;2.38;2.10;;;;;;;;;;5095565;28;20199;-67
2022/09/02 07:30:45;;;;;;;2.50;2.10;;;;;;;;;;5095700;28;20476;-67
2022/09/02 07:33:13;;;;;;;2.80;2.28;;;;;;;;;;5094925;28;20204;-66
2022/09/02 07:35:41;;;;;;;2.72;2.20;;;;;;;;;;5093637;28;20231;-66
2022/09/02 07:38:10;;;;;;;2.20;2.00;;;;;;;;;;5095312;28;20245;-66
2022/09/02 07:40:40;;;;;;;2.58;2.20;;;;;;;;;;5096258;28;20261;-66
2022/09/02 07:43:09;;;;;;;2.20;2.10;;;;;;;;;;5095626;28;20207;-66
2022/09/02 07:45:42;;;;;;;2.30;2.10;;;;;;;;;;5095456;28;20214;-66
2022/09/02 07:48:10;;;;;;;2.22;2.03;;;;;;;;;;5094462;28;20423;-67
2022/09/02 07:50:37;;;;;;;2.17;2.03;;;;;;;;;;5094771;28;20442;-66
2022/09/02 07:53:05;;;;;;;2.20;2.00;;;;;;;;;;5095119;28;20291;-67
2022/09/02 07:55:33;;;;;;;2.45;2.10;;;;;;;;;;5094950;28;20642;-66
2022/09/02 07:58:03;;;;;;;2.25;2.03;;;;;;;;;;5094311;28;20549;-66
2022/09/02 08:00:31;;;;;;;2.40;2.20;;;;;;;;;;5093965;28;20455;-67
2022/09/02 08:02:58;;;;;;;2.85;2.15;;;;;;;;;;5093351;28;20524;-66
2022/09/02 08:05:26;;;;;;;2.17;2.08;;;;;;;;;;5094702;28;20250;-66
2022/09/02 08:07:53;;;;;;;5.20;2.20;;;;;;;;;;5091820;28;20594;-66
2022/09/02 08:10:24;;;;;;;2.00;1.80;;;;;;;;;;5072730;28;20290;-66
2022/09/02 08:12:52;;;;;;;2.17;2.00;;;;;;;;;;5072430;28;20610;-64
2022/09/02 08:15:21;;;;;;;2.00;1.80;;;;;;;;;;5072361;28;20211;-64
2022/09/02 08:17:49;;;;;;;1.70;1.60;;;;;;;;;;5071664;28;20239;-65
2022/09/02 08:20:17;;;;;;;2.22;2.03;;;;;;;;;;5072904;28;20204;-65
2022/09/02 08:22:44;;;;;;;2.47;2.00;;;;;;;;;;5073519;28;20239;-65
2022/09/02 08:25:12;;;;;;;2.00;1.83;;;;;;;;;;5072437;28;20214;-65
2022/09/02 08:27:40;;;;;;;1.90;1.80;;;;;;;;;;5072422;28;20204;-65
2022/09/02 08:30:09;;;;;;;2.08;1.77;;;;;;;;;;5073697;28;20219;-65
2022/09/02 08:32:38;;;;;;;1.90;1.70;;;;;;;;;;5073634;28;20203;-65
2022/09/02 08:35:06;;;;;;;2.47;1.60;;;;;;;;;;5074227;28;20218;-65
2022/09/02 08:37:34;;;;;;;2.22;1.80;;;;;;;;;;5072940;28;20244;-64
2022/09/02 08:40:04;;;;;;;1.70;1.55;;;;;;;;;;5072047;28;20243;-66
2022/09/02 08:42:33;;;;;;;1.67;1.58;;;;;;;;;;5072830;28;20686;-66
2022/09/02 08:45:07;;;;;;;1.55;1.40;;;;;;;;;;5072427;28;20306;-67
2022/09/02 08:47:36;;;;;;;1.85;1.50;;;;;;;;;;5074834;28;20516;-67
2022/09/02 08:50:10;;;;;;;1.60;1.50;;;;;;;;;;5073830;28;20601;-65
2022/09/02 08:52:40;;;;;;;1.50;1.40;;;;;;;;;;5075425;28;20200;-65
2022/09/02 08:55:08;;;;;;;1.30;1.20;;;;;;;;;;5074145;28;20208;-64
2022/09/02 08:57:35;;;;;;;1.40;1.30;;;;;;;;;;5074537;28;20212;-65
2022/09/02 09:00:05;;;;;;;3.05;1.50;;;;;;;;;;5084490;28;20207;-65
2022/09/02 09:02:37;;;;;;;1.50;1.40;;;;;;;;;;5094359;28;20223;-65
2022/09/02 09:05:11;;;;;;;2.35;1.52;;;;;;;;;;5078702;28;20200;-65
2022/09/02 09:07:42;;;;;;;1.50;1.33;;;;;;;;;;5073515;28;20215;-65
2022/09/02 09:10:15;;;;;;;1.63;1.52;;;;;;;;;;5072430;28;20341;-65
2022/09/02 09:12:52;;;;;;;1.48;1.38;;;;;;;;;;5072299;28;20262;-64
2022/09/02 09:15:22;;;;;;;1.95;1.35;;;;;;;;;;5073334;28;20207;-64
2022/09/02 09:17:51;;;;;;;1.30;1.20;;;;;;;;;;5073558;28;20208;-68
2022/09/02 09:20:21;;;;;;;1.40;1.30;;;;;;;;;;5074727;28;20206;-64
2022/09/02 09:22:49;;;;;;;1.40;1.30;;;;;;;;;;5073628;28;20263;-64
2022/09/02 09:25:18;;;;;;;1.52;1.40;;;;;;;;;;5073843;28;20724;-65
2022/09/02 09:27:46;;;;;;;1.33;1.15;;;;;;;;;;5074592;28;20551;-65
2022/09/02 09:30:14;;;;;;;1.35;1.20;;;;;;;;;;5073071;28;20275;-64
2022/09/02 09:32:42;;;;;;;1.25;1.15;;;;;;;;;;5073573;28;20788;-64
2022/09/02 09:35:11;;;;;;;1.58;1.30;;;;;;;;;;5078719;28;20195;-64
2022/09/02 09:37:40;;;;;;;1.27;1.17;;;;;;;;;;5075825;28;20211;-64
2022/09/02 09:40:29;;;;;;;1.63;1.23;;;;;;;;;;5071294;28;20247;-66
2022/09/02 09:42:57;;;;;;;1.17;1.08;;;;;;;;;;5071518;28;20224;-65
2022/09/02 09:45:31;;;;;;;1.33;1.20;;;;;;;;;;5072797;28;20204;-65
2022/09/02 09:48:19;;;;;;;1.17;1.08;;;;;;;;;;5070481;28;20204;-66
2022/09/02 09:50:46;;;;;;;1.30;1.20;;;;;;;;;;5071382;28;20204;-66
2022/09/02 09:53:16;;;;;;;1.38;1.27;;;;;;;;;;5070245;28;20201;-65
2022/09/02 09:55:53;;;;;;;1.30;1.20;;;;;;;;;;5073675;28;20227;-64
2022/09/02 09:58:22;;;;;;;1.30;1.20;;;;;;;;;;5071678;28;20204;-64
2022/09/02 10:00:59;;;;;;;1.20;1.10;;;;;;;;;;5071076;28;20611;-65
2022/09/02 10:03:27;;;;;;;1.33;1.23;;;;;;;;;;5069962;28;20254;-65
2022/09/02 10:05:56;;;;;;;1.40;1.30;;;;;;;;;;5069521;28;20205;-67
2022/09/02 10:08:25;;;;;;;1.30;1.20;;;;;;;;;;5071928;28;20223;-65
2022/09/02 10:10:57;;;;;;;1.77;1.30;;;;;;;;;;5069992;28;20236;-64
2022/09/02 10:13:25;;;;;;;1.30;1.20;;;;;;;;;;5071753;28;20216;-64
2022/09/02 10:16:01;;;;;;;1.40;1.30;;;;;;;;;;5070647;28;20600;-67
2022/09/02 10:18:32;;;;;;;1.38;1.27;;;;;;;;;;5070452;28;20266;-65
2022/09/02 10:21:04;;;;;;;1.60;1.20;;;;;;;;;;5071143;28;20204;-64
2022/09/02 10:23:44;;;;;;;1.60;1.17;;;;;;;;;;5087892;28;20482;-64
2022/09/02 10:26:16;;;;;;;1.65;1.38;;;;;;;;;;5090279;28;20237;-64
2022/09/02 10:28:56;;;;;;;1.45;1.35;;;;;;;;;;5090719;28;20210;-67
2022/09/02 10:31:27;;;;;;;1.30;1.20;;;;;;;;;;5090247;28;20493;-64
2022/09/02 10:34:02;;;;;;;1.80;1.30;;;;;;;;;;5082431;28;20207;-65
2022/09/02 10:36:35;;;;;;;1.50;1.40;;;;;;;;;;5072810;28;20211;-65
2022/09/02 10:39:10;;;;;;;1.42;1.33;;;;;;;;;;5073994;28;20322;-66
2022/09/02 10:41:45;;;;;;;1.40;1.10;;;;;;;;;;5075756;28;20303;-65
2022/09/02 10:44:28;;;;;;;1.48;1.33;;;;;;;;;;5075663;28;20290;-65
2022/09/02 10:47:00;;;;;;;1.58;1.20;;;;;;;;;;5067361;28;20239;-64
2022/09/02 10:49:48;;;;;;;1.83;1.05;;;;;;;;;;5074554;28;20197;-65
2022/09/02 10:52:27;;;;;;;1.80;1.20;;;;;;;;;;5075172;28;20634;-64
2022/09/02 10:55:00;;;;;;;2.05;1.40;;;;;;;;;;5085163;28;20195;-64
2022/09/02 10:57:30;;;;;;;1.40;1.30;;;;;;;;;;5094069;28;20555;-64
2022/09/02 11:00:01;;;;;;;1.65;1.30;;;;;;;;;;5093812;28;20214;-64
2022/09/02 11:02:31;;;;;;;1.65;1.50;;;;;;;;;;5093045;28;20646;-65
2022/09/02 11:05:01;;;;;;;1.42;1.33;;;;;;;;;;5093753;28;20211;-67
2022/09/02 11:07:30;;;;;;;1.48;1.38;;;;;;;;;;5093377;28;20564;-64
2022/09/02 11:10:00;;;;;;;1.52;1.42;;;;;;;;;;5095465;28;20214;-66
2022/09/02 11:12:32;;;;;;;2.05;1.40;;;;;;;;;;5076805;28;20226;-65
2022/09/02 11:15:04;;;;;;;1.52;1.40;;;;;;;;;;5075645;28;20235;-66
2022/09/02 11:17:38;;;;;;;2.40;1.25;;;;;;;;;;5089398;28;20532;-64
2022/09/02 11:20:09;;;;;;;1.15;1.05;;;;;;;;;;5093397;28;20530;-66
2022/09/02 11:22:39;;;;;;;1.40;1.30;;;;;;;;;;5092941;28;20223;-67
2022/09/02 11:25:11;;;;;;;1.38;1.23;;;;;;;;;;5093323;28;20211;-64
2022/09/02 11:27:42;;;;;;;1.30;1.20;;;;;;;;;;5093841;28;20207;-65
2022/09/02 11:30:12;;;;;;;1.70;1.42;;;;;;;;;;5093363;28;20298;-64
2022/09/02 11:32:42;;;;;;;1.45;1.33;;;;;;;;;;5092412;28;20206;-64
2022/09/02 11:35:13;;;;;;;1.30;1.20;;;;;;;;;;5091643;28;20233;-65
2022/09/02 11:37:43;;;;;;;1.20;1.20;;;;;;;;;;5091242;28;20286;-67
2022/09/02 11:40:16;;;;;;;1.30;1.20;;;;;;;;;;5092255;28;20200;-65
2022/09/02 11:42:51;;;;;;;1.25;1.15;;;;;;;;;;5092403;28;20231;-64
2022/09/02 11:45:24;;;;;;;1.52;1.27;;;;;;;;;;5079919;28;20584;-65
2022/09/02 11:48:06;;;;;;;1.20;1.10;;;;;;;;;;5074277;28;20224;-64
2022/09/02 11:50:44;;;;;;;1.42;1.33;;;;;;;;;;5069199;28;20208;-66
2022/09/02 11:53:18;;;;;;;1.30;1.20;;;;;;;;;;5072332;28;20227;-66
2022/09/02 11:55:50;;;;;;;1.40;1.30;;;;;;;;;;5072816;28;20286;-67
2022/09/02 11:58:31;;;;;;;1.75;1.10;;;;;;;;;;5073052;28;20212;-66
2022/09/02 12:01:05;;;;;;;1.58;1.25;;;;;;;;;;5072251;28;20200;-66
2022/09/02 12:03:35;;;;;;;1.13;1.10;;;;;;;;;;5072377;28;20239;-66
2022/09/02 12:06:07;;;;;;;1.20;1.10;;;;;;;;;;5072139;28;20208;-67
2022/09/02 12:08:53;;;;;;;1.30;1.20;;;;;;;;;;5071587;28;20224;-67
2022/09/02 12:11:38;;;;;;;1.45;1.20;;;;;;;;;;5063039;28;20425;-67
2022/09/02 12:14:10;;;;;;;1.30;1.20;;;;;;;;;;5085294;28;20298;-67
2022/09/02 12:16:41;;;;;;;1.90;1.30;;;;;;;;;;5091734;28;20349;-66
2022/09/02 12:19:26;;;;;;;1.30;1.20;;;;;;;;;;5090866;28;20204;-67
2022/09/02 12:22:11;;;;;;;1.67;1.33;;;;;;;;;;5091765;28;20317;-67
2022/09/02 12:24:51;;;;;;;1.10;1.05;;;;;;;;;;5082223;28;20204;-66
2022/09/02 12:27:24;;;;;;;1.63;1.30;;;;;;;;;;5091073;28;20199;-67
2022/09/02 12:29:53;;;;;;;1.05;1.00;;;;;;;;;;5092373;28;20485;-67
2022/09/02 12:32:38;;;;;;;1.63;1.20;;;;;;;;;;5091173;28;20219;-67
2022/09/02 12:35:10;;;;;;;1.15;1.00;;;;;;;;;;5090803;28;20196;-66
2022/09/02 12:37:53;;;;;;;1.23;1.02;;;;;;;;;;5092319;28;20200;-66
2022/09/02 12:40:25;;;;;;;1.13;1.02;;;;;;;;;;5071235;28;20216;-66
2022/09/02 12:42:52;;;;;;;1.17;1.08;;;;;;;;;;5070569;28;20478;-66
2022/09/02 12:45:26;;;;;;;1.30;1.10;;;;;;;;;;5071454;28;20215;-66
2022/09/02 12:47:58;;;;;;;1.40;1.10;;;;;;;;;;5071996;28;20240;-66
2022/09/02 12:50:27;;;;;;;1.10;1.00;;;;;;;;;;5072426;28;20197;-66
2022/09/02 12:53:07;;;;;;;1.30;1.20;;;;;;;;;;5071999;28;20724;-66
2022/09/02 12:55:36;;;;;;;1.00;1.00;;;;;;;;;;5070422;28;20223;-65
2022/09/02 12:58:09;;;;;;;1.42;1.05;;;;;;;;;;5071635;28;20254;-67
2022/09/02 13:00:42;;;;;;;1.60;1.05;;;;;;;;;;5072015;28;20204;-64
2022/09/02 13:03:23;;;;;;;1.52;1.10;;;;;;;;;;5071491;28;20289;-66
2022/09/02 13:05:55;;;;;;;1.25;1.13;;;;;;;;;;5071228;28;20215;-67
2022/09/02 13:08:39;;;;;;;1.10;1.00;;;;;;;;;;5073801;28;20206;-67
2022/09/02 13:11:34;;;;;;;0.85;0.85;;;;;;;;;;5093321;28;20493;-66
2022/09/02 13:14:10;;;;;;;1.00;0.90;;;;;;;;;;5087572;28;20203;-67
2022/09/02 13:16:45;;;;;;;0.88;0.88;;;;;;;;;;5093403;28;20221;-66
2022/09/02 13:19:24;;;;;;;1.00;0.90;;;;;;;;;;5093296;28;20203;-67
2022/09/02 13:22:17;;;;;;;0.80;0.80;;;;;;;;;;5093750;28;20239;-67
2022/09/02 13:25:00;;;;;;;0.73;0.70;;;;;;;;;;5091859;28;20212;-66
2022/09/02 13:27:40;;;;;;;0.80;0.80;;;;;;;;;;5094476;28;20654;-67
2022/09/02 13:30:19;;;;;;;0.93;0.82;;;;;;;;;;5091992;28;20222;-66
2022/09/02 13:32:56;;;;;;;1.48;0.90;;;;;;;;;;5092472;28;20302;-67
2022/09/02 13:35:26;;;;;;;2.15;1.00;;;;;;;;;;5092036;28;20377;-66
2022/09/02 13:37:59;;;;;;;1.10;0.90;;;;;;;;;;5092264;28;20203;-67
2022/09/02 13:40:27;;;;;;;0.98;0.80;;;;;;;;;;5078196;28;20412;-66
2022/09/02 13:42:56;;;;;;;1.33;0.80;;;;;;;;;;5092148;28;20514;-66
2022/09/02 13:45:24;;;;;;;0.80;0.80;;;;;;;;;;5092604;28;20211;-67
2022/09/02 13:47:54;;;;;;;1.13;0.90;;;;;;;;;;5091179;28;20223;-66
2022/09/02 13:50:22;;;;;;;2.03;0.80;;;;;;;;;;5091327;28;20310;-67
2022/09/02 13:52:51;;;;;;;1.27;0.70;;;;;;;;;;5091474;28;20204;-67
2022/09/02 13:55:20;;;;;;;1.13;1.00;;;;;;;;;;5090721;28;20498;-66
2022/09/02 13:57:51;;;;;;;0.82;0.80;;;;;;;;;;5083229;28;20195;-67
2022/09/02 14:00:26;;;;;;;1.10;1.00;;;;;;;;;;5092003;28;20207;-67
2022/09/02 14:03:02;;;;;;;1.10;1.00;;;;;;;;;;5090168;28;20625;-67
2022/09/02 14:05:31;;;;;;;1.10;1.00;;;;;;;;;;5090747;28;20638;-67
2022/09/02 14:08:00;;;;;;;1.30;1.05;;;;;;;;;;5073852;28;20287;-66
2022/09/02 14:10:30;;;;;;;1.00;0.90;;;;;;;;;;5072276;28;20211;-66
2022/09/02 14:12:59;;;;;;;2.65;1.10;;;;;;;;;;5074303;28;20216;-66
2022/09/02 14:15:28;;;;;;;2.50;1.20;;;;;;;;;;5075765;28;20246;-66
2022/09/02 14:18:14;;;;;;;1.25;1.00;;;;;;;;;;5057131;28;20212;-66
2022/09/02 14:20:55;;;;;;;2.25;1.05;;;;;;;;;;5074336;28;20317;-66
2022/09/02 14:23:22;;;;;;;2.33;1.20;;;;;;;;;;5073268;28;20216;-66
2022/09/02 14:25:51;;;;;;;1.55;1.20;;;;;;;;;;5074943;28;20316;-66
2022/09/02 14:28:20;;;;;;;1.10;0.93;;;;;;;;;;5075429;28;20200;-67
2022/09/02 14:30:55;;;;;;;1.73;1.20;;;;;;;;;;5073696;28;20214;-66
2022/09/02 14:33:28;;;;;;;3.17;1.25;;;;;;;;;;5075173;28;20235;-67
2022/09/02 14:35:57;;;;;;;1.45;1.30;;;;;;;;;;5093002;28;20395;-66
2022/09/02 14:38:25;;;;;;;1.30;1.20;;;;;;;;;;5093910;28;20195;-66
2022/09/02 14:40:59;;;;;;;1.20;1.10;;;;;;;;;;5093311;28;20221;-67
2022/09/02 14:43:27;;;;;;;1.27;1.15;;;;;;;;;;5093995;28;20227;-67
2022/09/02 14:46:04;;;;;;;1.20;1.10;;;;;;;;;;5094743;28;20239;-66
2022/09/02 14:48:36;;;;;;;1.23;1.13;;;;;;;;;;5094045;28;20204;-67
2022/09/02 14:51:05;;;;;;;1.10;1.00;;;;;;;;;;5094001;28;20214;-67
2022/09/02 14:53:33;;;;;;;1.33;1.10;;;;;;;;;;5094264;28;20207;-67
2022/09/02 14:56:00;;;;;;;1.30;1.10;;;;;;;;;;5094172;28;20222;-67
2022/09/02 14:58:28;;;;;;;1.33;1.00;;;;;;;;;;5093672;28;20399;-66
2022/09/02 15:00:57;;;;;;;2.60;1.27;;;;;;;;;;5088588;28;20196;-67
2022/09/02 15:03:25;;;;;;;1.30;1.20;;;;;;;;;;5074417;28;20228;-67
2022/09/02 15:05:53;;;;;;;1.80;1.05;;;;;;;;;;5073872;28;20216;-66